West Barnstable, MA

6:32 PM EST on March 05, 2015 (GMT -0500)
WEST BARNSTABLE | Change Station
CLOSE
Current Station
Personal Weather Station
Location: West Barnstable, MA
Elevation: 90 ft
Nearby Weather Stations

Elev 90 ft 41.72 °N, 70.39 °W | Updated 5 seconds ago

Snow
Snow
21.6 °F
Feels Like 22 °F
N
0.0
Wind Variable Wind from North
Gusts 2.0 mph

Today
High -- | Low -- °F
--% Chance of Precip.
Yesterday
High -- | Low -- °F
Precip. -- in
6:10 AM 5:36 PM
Full, 100% visible
Pressure 30.13 in
Visibility 1.0 miles
Clouds Few 900 ft
Overcast 1400 ft
Windchill 22 °F
Dew Point 20 °F
Humidity 94%
Rainfall in
Snow Depth Not available.
UV 0 out of 12
Pollen .50 out of 12
Air Quality Not available.
Flu Activity Not available.
SPECI KHYA 052313Z 36008KT 1SM -SN BR FEW009 OVC014 M05/M07 A3013 RMK AO2 P0001 T10501067

More Conditions Fewer Conditions

Pressure 30.13 in
Visibility 1.0 miles
Clouds Few 900 ft
Overcast 1400 ft
Windchill 22 °F
Dew Point 20 °F
Humidity 94%
Rainfall in
Snow Depth Not available.
UV 0 out of 12
Pollen .50 out of 12
Air Quality Not available.
Flu Activity Not available.
SPECI KHYA 052313Z 36008KT 1SM -SN BR FEW009 OVC014 M05/M07 A3013 RMK AO2 P0001 T10501067

More Conditions Fewer Conditions

10-Day Weather Forecast

Almanac

Astronomy

Mar. 05, 2015 Rise Set
Actual Time
Civil Twilight
Nautical Twilight
Astronomical Twilight
Moon
Length of Visible Light
Length of Day
Tomorrow will be .
, % of the Moon is Illuminated

Today's Extremes

State Highs State Lows

Community

WunderPhotos

Upload Photos

1,803,057 photos uploaded!

WunderBlogs® & News

Nearby

Air Quality

  Air Quality AQ Index Pollutant
Not available.

Snow Depth

Station Depth Elevation

Earthquake Activity

City Distance Mag. Time & Date
Minimum magnitude displayed is 2.5.

Coastal Water Temperatures

Place Temperature

Nearby Weather Stations

Winter Storm Warning
Statement as of 5:37 PM EST on March 05, 2015

... Winter Storm Warning now in effect until 10 PM EST this
evening...

* locations... Cape Cod and the islands.

* Hazard types... snow.

* Accumulations... snow accumulation of 8 to 12 inches.

* Timing... snow... light to moderate will taper off between 7 PM
and 10 PM.

* Impacts... travel will be slow at best on well treated
surfaces... and quite difficult on any unplowed or untreated
surfaces. Poor visibility will also be a concern. The heavy wet
snow may aggravate snow-loading concerns especially for flat
roofs.

* Visibilities... one quarter mile or less at times.

Precautionary/preparedness actions...

A Winter Storm Warning is issued when an average of 6 or more
inches of snow is expected in a 12 hour period... or for 8 or more
inches in a 24 hour period. Travel will be slow at best on well
treated surfaces... and quite difficult on any unplowed or
untreated surfaces.